createdAt,value
2022-12-19T00:04:39.402Z,34.00
2022-12-19T00:09:41.214Z,35.85
2022-12-19T00:14:43.072Z,33.60
2022-12-19T00:19:44.664Z,33.75
2022-12-19T00:24:46.436Z,35.42
2022-12-19T00:29:49.005Z,39.42
2022-12-19T00:34:50.731Z,36.58
2022-12-19T00:39:52.532Z,32.88
2022-12-19T00:44:54.203Z,31.92
2022-12-19T00:49:56.031Z,30.77
2022-12-19T00:54:57.704Z,32.10
2022-12-19T00:59:59.432Z,35.90
2022-12-19T01:05:02.082Z,35.60
2022-12-19T01:10:05.140Z,32.47
2022-12-19T01:15:07.440Z,32.47
2022-12-19T01:20:11.177Z,33.53
2022-12-19T01:25:14.095Z,33.13
2022-12-19T01:30:16.348Z,31.52
2022-12-19T01:35:21.364Z,33.15
2022-12-19T01:40:24.217Z,33.15
2022-12-19T01:45:36.598Z,33.35
2022-12-19T01:51:01.784Z,36.05
2022-12-19T01:56:10.003Z,35.95
2022-12-19T02:01:12.157Z,33.88
2022-12-19T02:06:16.771Z,33.20
2022-12-19T02:11:18.682Z,30.63
2022-12-19T02:16:31.914Z,31.88
2022-12-19T02:21:55.594Z,31.67
2022-12-19T02:27:06.000Z,31.40
2022-12-19T02:32:28.958Z,35.60
2022-12-19T02:37:34.646Z,32.90
2022-12-19T02:42:46.623Z,30.40
2022-12-19T02:47:48.831Z,31.20
2022-12-19T02:52:50.860Z,31.77
2022-12-19T02:58:01.489Z,30.02
2022-12-19T03:03:45.175Z,30.38
2022-12-19T03:09:20.748Z,30.75
2022-12-19T03:14:23.902Z,31.25
2022-12-19T03:19:29.005Z,31.75
2022-12-19T03:24:30.854Z,31.08
2022-12-19T03:29:49.589Z,30.85
2022-12-19T03:34:57.825Z,32.43
2022-12-19T03:40:03.122Z,32.13
2022-12-19T03:45:06.594Z,33.83
2022-12-19T03:50:09.336Z,31.67
2022-12-19T03:55:18.210Z,34.35
2022-12-19T04:00:20.996Z,34.08
2022-12-19T04:05:26.192Z,35.95
2022-12-19T04:10:29.026Z,34.78
2022-12-19T04:15:50.125Z,32.17
2022-12-19T04:21:11.727Z,31.52
2022-12-19T04:26:16.486Z,33.38
2022-12-19T04:31:20.052Z,30.17
2022-12-19T04:36:21.828Z,30.65
2022-12-19T04:41:23.697Z,29.05
2022-12-19T04:46:25.503Z,30.67
2022-12-19T04:51:32.150Z,29.17
2022-12-19T04:56:33.764Z,30.40
2022-12-19T05:01:35.854Z,29.75
2022-12-19T05:06:43.389Z,30.05
2022-12-19T05:11:45.005Z,32.45
2022-12-19T05:16:46.825Z,32.63
2022-12-19T05:21:48.866Z,31.20
2022-12-19T05:26:50.745Z,30.77
2022-12-19T05:31:56.985Z,29.92
2022-12-19T05:36:59.379Z,29.92
2022-12-19T05:42:02.001Z,32.22
2022-12-19T05:47:03.617Z,31.10
2022-12-19T05:52:05.665Z,33.53
2022-12-19T05:57:09.699Z,32.15
2022-12-19T06:02:11.374Z,34.78
2022-12-19T06:07:16.573Z,31.92
2022-12-19T06:12:23.075Z,31.77
2022-12-19T06:17:24.788Z,30.45
2022-12-19T06:22:31.444Z,29.70
2022-12-19T06:27:33.679Z,30.83
2022-12-19T06:32:38.355Z,33.70
2022-12-19T06:37:40.271Z,30.98
2022-12-19T06:42:50.036Z,30.42
2022-12-19T06:47:51.881Z,31.60
2022-12-19T06:52:53.540Z,33.08
2022-12-19T06:57:55.402Z,31.77
2022-12-19T07:02:59.682Z,30.85
2022-12-19T07:08:01.708Z,30.70
2022-12-19T07:13:04.562Z,31.38
2022-12-19T07:18:10.033Z,32.13
2022-12-19T07:23:16.524Z,32.00
2022-12-19T07:28:18.652Z,30.35
2022-12-19T07:33:22.262Z,32.08
2022-12-19T07:38:24.390Z,33.15
2022-12-19T07:43:26.057Z,32.30
2022-12-19T07:48:30.672Z,30.15
2022-12-19T07:53:37.475Z,29.38
2022-12-19T07:58:39.146Z,29.98
2022-12-19T08:03:40.871Z,29.50
2022-12-19T08:08:42.460Z,29.67
2022-12-19T08:13:46.684Z,31.92
2022-12-19T08:18:48.474Z,31.05
2022-12-19T08:23:50.400Z,30.02
2022-12-19T08:28:53.664Z,31.05
2022-12-19T08:33:57.001Z,30.63
2022-12-19T08:38:58.852Z,31.02
2022-12-19T08:44:01.933Z,32.95
2022-12-19T08:49:03.815Z,32.08
2022-12-19T08:54:07.944Z,32.63
2022-12-19T08:59:13.569Z,30.75
2022-12-19T09:05:58.358Z,30.85
2022-12-19T09:09:44.508Z,28.77
2022-12-19T09:14:46.356Z,28.10
2022-12-19T09:19:48.493Z,27.63
2022-12-19T09:24:50.298Z,28.13
2022-12-19T09:29:51.888Z,28.80
2022-12-19T09:34:53.651Z,28.98
2022-12-19T09:39:58.774Z,25.67
2022-12-19T09:45:31.840Z,26.75
2022-12-19T09:51:10.491Z,25.88
2022-12-19T09:56:16.128Z,30.52
2022-12-19T10:01:29.681Z,30.73
2022-12-19T10:07:20.360Z,30.23
2022-12-19T10:12:39.749Z,25.45
2022-12-19T10:17:57.241Z,21.20
2022-12-19T10:23:20.791Z,20.30
2022-12-19T10:28:58.900Z,20.05
2022-12-19T10:34:12.936Z,19.63
2022-12-19T10:39:31.938Z,19.77
2022-12-19T10:44:48.018Z,21.70
2022-12-19T10:50:08.988Z,19.60
2022-12-19T10:55:48.174Z,21.00
2022-12-19T11:01:20.809Z,24.90
2022-12-19T11:06:37.731Z,24.40
2022-12-19T11:13:01.184Z,33.22
2022-12-19T11:26:03.758Z,30.02
2022-12-19T11:30:36.678Z,27.88
2022-12-19T11:30:49.026Z,25.08
2022-12-19T11:34:06.425Z,24.52
2022-12-19T11:39:24.998Z,24.63
2022-12-19T11:44:32.348Z,29.10
2022-12-19T11:49:51.683Z,24.63
2022-12-19T11:54:59.125Z,27.23
2022-12-19T12:00:04.983Z,23.52
2022-12-19T12:05:29.553Z,25.10
2022-12-19T12:15:19.055Z,25.50
2022-12-19T12:31:02.485Z,25.92
2022-12-19T12:31:17.332Z,27.23
2022-12-19T12:31:43.659Z,26.08
2022-12-19T12:35:28.857Z,26.87
2022-12-19T12:38:47.808Z,25.48
2022-12-19T12:44:08.648Z,24.75
2022-12-19T12:49:35.835Z,26.67
2022-12-19T12:54:41.841Z,26.02
2022-12-19T12:59:46.026Z,26.20
2022-12-19T13:04:56.549Z,25.80
2022-12-19T13:10:18.067Z,27.38
2022-12-19T13:15:22.827Z,26.23
2022-12-19T13:20:24.888Z,26.45
2022-12-19T13:25:38.411Z,27.27
2022-12-19T13:31:21.188Z,26.48
2022-12-19T13:39:49.333Z,27.77
2022-12-19T13:42:35.861Z,28.88
2022-12-19T13:47:41.909Z,29.42
2022-12-19T13:52:49.042Z,29.48
2022-12-19T13:57:54.896Z,29.58
2022-12-19T14:02:59.230Z,26.95
2022-12-19T14:08:06.891Z,25.25
2022-12-19T14:13:43.389Z,26.60
2022-12-19T14:18:57.022Z,26.88
2022-12-19T14:24:25.078Z,27.13
2022-12-19T14:30:02.428Z,26.30
2022-12-19T14:36:06.823Z,27.13
2022-12-19T14:40:32.337Z,27.98
2022-12-19T14:52:35.579Z,29.23
2022-12-19T14:54:24.628Z,28.05
2022-12-19T14:57:00.335Z,29.55
2022-12-19T15:02:05.949Z,31.05
2022-12-19T15:07:21.095Z,29.63
2022-12-19T15:14:52.117Z,30.77
2022-12-19T15:18:34.337Z,31.13
2022-12-19T15:23:36.317Z,27.48
2022-12-19T15:28:51.033Z,30.08
2022-12-19T15:34:32.311Z,27.85
2022-12-19T15:39:17.535Z,28.27
2022-12-19T15:44:26.267Z,30.05
2022-12-19T15:49:28.027Z,30.50
2022-12-19T15:59:52.031Z,27.77
2022-12-19T16:04:59.800Z,30.73
2022-12-19T16:10:05.598Z,34.75
2022-12-19T16:15:15.435Z,38.10
2022-12-19T16:20:24.102Z,31.85
2022-12-19T16:25:38.624Z,34.40
2022-12-19T16:30:43.508Z,35.33
2022-12-19T16:41:23.604Z,35.38
2022-12-19T16:46:31.100Z,32.60
2022-12-19T16:51:32.984Z,31.52
2022-12-19T16:56:38.621Z,32.85
2022-12-19T17:01:41.793Z,32.38
2022-12-19T17:06:43.791Z,31.17
2022-12-19T17:11:48.968Z,29.60
2022-12-19T17:16:54.629Z,30.40
2022-12-19T17:21:56.228Z,26.90
2022-12-19T17:26:57.859Z,27.00
2022-12-19T17:31:59.647Z,29.33
2022-12-19T17:37:04.457Z,29.40
2022-12-19T17:42:37.568Z,29.30
2022-12-19T17:47:39.624Z,33.20
2022-12-19T17:52:41.181Z,33.38
2022-12-19T17:57:42.803Z,31.70
2022-12-19T18:02:46.323Z,31.48
2022-12-19T18:07:49.889Z,33.22
2022-12-19T18:12:51.597Z,29.65
2022-12-19T18:17:53.935Z,31.20
2022-12-19T18:22:56.347Z,31.75
2022-12-19T18:27:58.533Z,30.30
2022-12-19T18:33:02.178Z,29.35
2022-12-19T18:38:12.511Z,23.38
2022-12-19T18:43:18.083Z,22.38
2022-12-19T18:48:20.519Z,19.85
2022-12-19T18:53:23.622Z,20.15
2022-12-19T18:58:26.404Z,17.60
2022-12-19T19:03:32.356Z,19.02
2022-12-19T19:08:34.766Z,22.63
2022-12-19T19:13:53.162Z,23.60
2022-12-19T19:18:56.793Z,24.15
2022-12-19T19:24:08.691Z,30.98
2022-12-19T19:29:11.010Z,30.92
2022-12-19T19:34:18.268Z,31.52
2022-12-19T19:39:20.303Z,33.50
2022-12-19T19:44:22.029Z,30.90
2022-12-19T19:49:23.923Z,29.20
2022-12-19T19:54:25.498Z,32.15
2022-12-19T19:59:31.384Z,34.25
2022-12-19T20:04:33.171Z,27.67
2022-12-19T20:09:34.749Z,26.90
2022-12-19T20:14:36.336Z,25.50
2022-12-19T20:19:38.596Z,28.05
2022-12-19T20:24:40.204Z,27.45
2022-12-19T20:29:41.834Z,24.83
2022-12-19T20:34:43.480Z,25.92
2022-12-19T20:39:45.105Z,27.15
2022-12-19T20:44:46.728Z,38.28
2022-12-19T20:49:48.375Z,30.88
2022-12-19T20:54:50.452Z,31.45
2022-12-19T20:59:52.483Z,32.03
2022-12-19T21:04:54.228Z,32.05
2022-12-19T21:09:57.569Z,28.45
2022-12-19T21:14:59.142Z,27.30
2022-12-19T21:20:00.791Z,38.05
2022-12-19T21:25:02.472Z,29.20
2022-12-19T21:30:05.134Z,27.27
2022-12-19T21:35:07.508Z,25.95
2022-12-19T21:40:09.567Z,29.23
2022-12-19T21:45:12.028Z,29.35
2022-12-19T21:50:14.822Z,28.15
2022-12-19T21:55:16.404Z,29.48
2022-12-19T22:00:18.429Z,28.65
2022-12-19T22:05:20.059Z,28.27
2022-12-19T22:10:21.732Z,28.27
2022-12-19T22:15:23.329Z,29.45
2022-12-19T22:20:24.933Z,33.33
2022-12-19T22:25:26.585Z,30.90
2022-12-19T22:30:28.168Z,32.75
2022-12-19T22:35:29.775Z,32.13
2022-12-19T22:40:33.167Z,30.20
2022-12-19T22:45:34.910Z,30.90
2022-12-19T22:50:36.847Z,30.20
2022-12-19T22:55:38.459Z,30.08
2022-12-19T23:00:40.131Z,35.63
2022-12-19T23:05:45.592Z,32.72
2022-12-19T23:10:53.285Z,31.48
2022-12-19T23:15:57.520Z,32.85
2022-12-19T23:21:20.765Z,29.92
2022-12-19T23:26:31.640Z,26.85
2022-12-19T23:31:33.677Z,29.08
2022-12-19T23:41:58.548Z,27.55
2022-12-19T23:47:03.586Z,29.33
2022-12-19T23:52:05.722Z,27.60
2022-12-19T23:57:07.304Z,29.50
